Date,TemperatureHighF,TemperatureAvgF,TemperatureLowF,DewpointHighF,DewpointAvgF,DewpointLowF,HumidityHigh,HumidityAvg,HumidityLow,PressureMaxIn,PressureMinIn,WindSpeedMaxMPH,WindSpeedAvgMPH,GustSpeedMaxMPH,PrecipitationSumIn
2013-1-1,50.2,48.4,45.8,50.2,42.8,28.4,100,83,46,30.06,29.86,3,0,3,0.53
2013-1-2,52.8,48.8,45.5,48.6,45.7,41.0,100,90,67,30.07,29.82,5,0,5,0.10
2013-1-3,45.4,41.5,32.1,43.5,39.0,25.7,100,91,73,30.24,30.01,5,0,5,0.00
2013-1-4,51.3,37.8,26.3,30.0,25.4,20.5,94,63,38,30.31,30.17,8,0,8,0.00
2013-1-5,48.5,38.5,25.0,36.5,25.4,20.7,91,61,37,30.34,30.16,6,0,8,0.02
2013-1-6,56.2,45.1,38.9,43.0,37.9,29.6,92,77,60,30.17,29.97,6,0,6,0.14
2013-1-7,52.3,39.8,29.5,31.6,28.9,26.4,91,67,39,30.36,30.15,6,0,6,0.00
2013-1-8,51.4,39.5,25.8,40.4,33.3,24.3,100,80,58,30.40,30.30,3,0,3,0.00
2013-1-9,65.0,54.8,46.8,53.9,47.7,39.8,91,77,65,30.38,30.29,1,0,1,0.00
2013-1-10,66.8,53.5,44.2,53.6,49.4,44.1,100,88,60,30.42,30.30,2,0,2,0.00
2013-1-17,43.2,39.9,38.2,42.9,39.6,38.0,100,99,94,30.15,29.86,11,1,16,2.01
2013-1-18,38.0,35.9,34.6,38.0,34.0,30.0,100,93,82,30.25,30.14,6,0,6,0.00
2013-1-21,62.6,52.9,34.1,34.2,24.8,14.9,100,34,25,30.02,29.88,10,0,10,0.00
2013-1-22,45.1,35.0,26.7,22.1,15.6,8.3,74,47,28,30.20,29.95,7,0,7,0.00
2013-1-23,51.9,35.9,20.6,29.2,21.9,11.5,92,60,31,30.29,30.01,8,0,8,0.00
2013-1-24,50.8,42.1,27.8,35.3,20.6,1.3,74,46,17,30.42,29.92,10,1,10,0.00
2013-1-25,29.4,27.0,23.5,26.0,17.8,7.2,91,70,42,30.45,30.07,3,0,3,0.00
2013-1-26,52.2,32.7,25.8,39.6,29.7,24.6,100,91,45,30.17,30.05,2,0,2,0.08
2013-1-28,52.9,46.4,39.9,45.3,39.3,30.0,95,77,62,30.38,30.20,4,0,4,0.00
2013-1-29,70.3,57.4,41.2,60.1,53.1,40.7,100,87,67,30.21,29.92,7,0,7,0.01
2013-1-30,68.8,65.3,63.2,61.8,60.8,59.7,90,85,77,29.92,29.57,14,1,14,0.00